X  Close Metar Aviation Weather Data     KMRH Michael J. Smith Field
Temperature
54°F Temperature
41°F Dewpoint
63% Humidity



Wind
13 KTS
7 M/S
15 MPH
24 KM/H



280°
West
Current Conditions

Clear Clear
Pressure 1015.92 (hPa) - 30 (inHg)
Visibility 10 (mile) - 16.1 (km)
Airport
Airport-code KMRH

Location: Michael J. Smith Field
Distance: 7 (mi)

Metar:
KMRH 131058Z AUTO 28013KT 10SM CLR 12/05 A3000 RMK AO2 SLP159 T01220050

Time: 13-04-2024 10:58 EDT